Nearby METAR Reports

 

KMTN - Baltimore/Martin, Maryland, USA
Distance from station: SSE 8mi, 13km
Updated: Sun, 20-Apr-2014 5:03am EDT
Clear
Clear
 Wind from calm
Wind: Calm
Temperature: 50°F , 10°C
Dew Point: 32°F , 0°C
Humidity: 50%
Barometer: 30.36 inHg , 1028.1 hPa
Clouds: Clear
Visibility: 10 miles , 16 km
2014/04/20 09:03 KMTN 200903Z AUTO 00000KT 10SM CLR 10/00 A3036 RMK AO2 LTG DSNT S
KDMH - Baltimore/Dwntwn, Maryland, USA
Distance from station: SW 12mi, 19km
Updated: Sun, 20-Apr-2014 4:54am EDT

 
Temperature: 52°F , 11°C
Dew Point: 27°F , -3°C
Humidity: 38%
Barometer: 30.34 inHg , 1027.4 hPa
2014/04/20 08:54 KDMH 200854Z AUTO 11/M03 A3034 RMK AO1 SLP272 T01111033 51004
 
KBWI - Balto/Wash Intl, Maryland, USA
Distance from station: SSW 20mi, 33km
Updated: Sun, 20-Apr-2014 4:54am EDT
Overcast
Overcast
 Wind from NE
Wind: NE 5 mph , 7 km/h
Temperature: 50°F , 10°C
Wind Chill: 48°F , 9°C
Dew Point: 28°F , -2°C
Humidity: 43%
Barometer: 30.32 inHg , 1026.8 hPa
Clouds: Overcast
Visibility: 10 miles , 16 km
Cloud details: Partly cloudy 18000 ft
Overcast 25000 ft
2014/04/20 08:54 KBWI 200854Z 05004KT 10SM SCT180 OVC250 10/M02 A3032 RMK AO2 SLP267 T01001022 51002
KDMW - Carroll Cnty, Maryland, USA
Distance from station: WNW 30mi, 48km
Updated: Sun, 20-Apr-2014 5:05am EDT
Clear
Clear
 Wind from NE
Wind: NE 7 mph , 11 km/h
Temperature: 46°F , 8°C
Wind Chill: 42°F , 6°C
Dew Point: 27°F , -3°C
Humidity: 46%
Barometer: 30.34 inHg , 1027.4 hPa
Clouds: Clear
Visibility: 10 miles , 16 km
2014/04/20 09:05 KDMW 200905Z AUTO 05006KT 10SM CLR 08/M03 A3034 RMK AO2 LTG DSNT S
 
KNAK - Annapolis/Naval, Maryland, USA
Distance from station: S 30mi, 48km
Updated: Sun, 20-Apr-2014 4:54am EDT
Clear
Clear
 Wind from N
Wind: N 3 mph , 6 km/h
Temperature: 48°F , 9°C
Dew Point: 45°F , 7°C
Humidity: 87%
Barometer: 30.32 inHg , 1026.8 hPa
Clouds: Clear
Visibility: 10 miles , 16 km
2014/04/20 08:54 KNAK 200854Z AUTO 35003KT 10SM CLR 09/07 A3032 RMK AO2 SLP270 T00940067 55000
KW29 - Stevensville, Maryland, USA
Distance from station: SSE 31mi, 50km
Updated: Sun, 20-Apr-2014 5:04am EDT
Clear
Clear
 Wind from ENE
Wind: ENE 5 mph , 7 km/h
Temperature: 50°F , 10°C
Wind Chill: 48°F , 9°C
Dew Point: 37°F , 3°C
Humidity: 62%
Barometer: 30.34 inHg , 1027.4 hPa
Clouds: Clear
Visibility: 10 miles , 16 km
2014/04/20 09:04 KW29 200904Z AUTO 06004KT 10SM CLR 10/03 A3034 RMK AO1 LTG DSNT S
 
KCGS - College Park, Maryland, USA
Distance from station: SW 38mi, 61km
Updated: Sun, 20-Apr-2014 5:00am EDT
Clear
Clear
 Wind from calm
Wind: Calm
Temperature: 43°F , 6°C
Dew Point: 39°F , 4°C
Humidity: 87%
Barometer: 30.33 inHg , 1027.1 hPa
Clouds: Clear
Visibility: 10 miles , 16 km
2014/04/20 09:00 KCGS 200900Z AUTO 00000KT 10SM CLR 06/04 A3033 RMK AO1
KGAI - Gaithersburg, Maryland, USA
Distance from station: WSW 40mi, 65km
Updated: Sun, 20-Apr-2014 4:55am EDT
Clear
Clear
 Wind from calm
Wind: Calm
Temperature: 46°F , 8°C
Dew Point: 25°F , -4°C
Humidity: 43%
Barometer: 30.35 inHg , 1027.8 hPa
Clouds: Clear
Visibility: 10 miles , 16 km
2014/04/20 08:55 KGAI 200855Z AUTO 00000KT 10SM CLR 08/M04 A3035 RMK AO1 52003
 
KTHV - York, Pennsylvania, USA
Distance from station: NNW 40mi, 65km
Updated: Sun, 20-Apr-2014 4:53am EDT
Clear
Clear
 Wind from calm
Wind: Calm
Temperature: 36°F , 2°C
Dew Point: 30°F , -1°C
Humidity: 81%
Barometer: 30.35 inHg , 1027.8 hPa
Clouds: Clear
Visibility: 10 miles , 16 km
2014/04/20 08:53 KTHV 200853Z AUTO 00000KT 10SM CLR 02/M01 A3035 RMK AO2 SLP282 T00221006 55001
KFDK - Frederick, Maryland, USA
Distance from station: W 47mi, 75km
Updated: Sun, 20-Apr-2014 5:00am EDT
Clear
Clear
 Wind from N
Wind: N 6 mph , 9 km/h
Temperature: 43°F , 6°C
Wind Chill: 39°F , 4°C
Dew Point: 32°F , 0°C
Humidity: 66%
Barometer: 30.38 inHg , 1028.8 hPa
Clouds: Clear
Visibility: 10 miles , 16 km
2014/04/20 09:00 KFDK 200900Z AUTO 01005KT 10SM CLR 06/00 A3038 RMK AO2
 
KESN - Easton/Newnam, Maryland, USA
Distance from station: SSE 48mi, 78km
Updated: Sun, 20-Apr-2014 5:14am EDT
Clear
Clear
 Wind from ENE
Wind: ENE 8 mph , 13 km/h
Temperature: 46°F , 8°C
Wind Chill: 42°F , 6°C
Dew Point: 39°F , 4°C
Humidity: 76%
Barometer: 30.36 inHg , 1028.1 hPa
Clouds: Clear
Visibility: 10 miles , 16 km
2014/04/20 09:14 KESN 200914Z AUTO 06007KT 10SM CLR 08/04 A3036 RMK AO2 T00820041
KDCA - Washington/Natl, Washington D.c., USA
Distance from station: SW 49mi, 79km
Updated: Sun, 20-Apr-2014 4:52am EDT
Overcast
Overcast
 
Temperature: 50°F , 10°C
Dew Point: 39°F , 4°C
Humidity: 67%
Barometer: 30.34 inHg , 1027.4 hPa
Clouds: Overcast
Visibility: 10 miles , 16 km
Cloud details: Mostly cloudy 14000 ft
Overcast 20000 ft
2014/04/20 08:52 KDCA 200852Z 10SM BKN140 OVC200 10/04 A3034 RMK AO2 SLP271 6//// T01000039 53002 PNO
 
KLNS - Lancaster, Pennsylvania, USA
Distance from station: N 49mi, 79km
Updated: Sun, 20-Apr-2014 4:53am EDT
Clear
Clear
 Wind from NE
Wind: NE 8 mph , 13 km/h
Temperature: 43°F , 6°C
Wind Chill: 38°F , 3°C
Dew Point: 28°F , -2°C
Humidity: 57%
Barometer: 30.36 inHg , 1028.1 hPa
Clouds: Clear
Visibility: 10 miles , 16 km
2014/04/20 08:53 KLNS 200853Z AUTO 05007KT 10SM CLR 06/M02 A3036 RMK AO2 SLP281 T00611022 53001
KILG - Wilmington, Delaware, USA
Distance from station: ENE 50mi, 81km
Updated: Sun, 20-Apr-2014 4:51am EDT
Clear
Clear
 Wind from NNE
Wind: NNE 9 mph , 15 km/h
Temperature: 48°F , 9°C
Wind Chill: 44°F , 7°C
Dew Point: 30°F , -1°C
Humidity: 50%
Barometer: 30.36 inHg , 1028.1 hPa
Clouds: Clear
Visibility: 10 miles , 16 km
2014/04/20 08:51 KILG 200851Z AUTO 03008KT 10SM CLR 09/M01 A3036 RMK AO2 SLP280 T00891006 53005